Time,TemperatureF,DewpointF,PressureIn,WindDirection,WindDirectionDegrees,WindSpeedMPH,WindSpeedGustMPH,Humidity,HourlyPrecipIn,Conditions,Clouds,dailyrainin,SoftwareType,DateUTC
2013-08-31 00:14:00,50.0,45.7,30.06,ESE,112,0.0,-999.0,85,-99.99,,,0.00,Acu-Link.com,2013-08-31 07:14:00,
2013-08-31 00:29:00,50.0,45.7,30.06,SSE,157,0.0,-999.0,85,-99.99,,,0.00,Acu-Link.com,2013-08-31 07:29:00,
2013-08-31 00:44:00,50.0,46.0,30.07,ESE,112,0.0,-999.0,86,-99.99,,,0.00,Acu-Link.com,2013-08-31 07:44:00,
2013-08-31 00:59:00,48.2,44.5,30.07,East,90,0.0,-999.0,87,-99.99,,,0.00,Acu-Link.com,2013-08-31 07:59:00,
2013-08-31 01:15:00,48.2,44.8,30.07,ENE,67,0.0,-999.0,88,-99.99,,,0.00,Acu-Link.com,2013-08-31 08:15:00,
2013-08-31 01:31:00,48.2,44.8,30.07,ESE,112,0.0,-999.0,88,-99.99,,,0.00,Acu-Link.com,2013-08-31 08:31:00,
2013-08-31 01:46:00,48.2,44.8,30.07,ESE,112,0.0,-999.0,88,-99.99,,,0.00,Acu-Link.com,2013-08-31 08:46:00,
2013-08-31 02:01:00,46.4,43.3,30.07,SE,135,0.0,-999.0,89,-99.99,,,0.00,Acu-Link.com,2013-08-31 09:01:00,
2013-08-31 02:16:00,46.4,43.3,30.06,East,90,0.0,-999.0,89,-99.99,,,0.00,Acu-Link.com,2013-08-31 09:16:00,
2013-08-31 02:31:00,46.4,45.9,30.07,ENE,67,0.0,-999.0,98,-99.99,,,0.00,Acu-Link.com,2013-08-31 09:31:00,
2013-08-31 02:47:00,46.4,44.5,30.07,East,90,0.0,-999.0,93,-99.99,,,0.00,Acu-Link.com,2013-08-31 09:47:00,
2013-08-31 03:02:00,46.4,45.9,30.07,ESE,112,0.0,-999.0,98,-99.99,,,0.00,Acu-Link.com,2013-08-31 10:02:00,
2013-08-31 03:17:00,44.6,44.1,30.08,ENE,67,0.0,-999.0,98,-99.99,,,0.00,Acu-Link.com,2013-08-31 10:17:00,
2013-08-31 03:32:00,44.6,44.1,30.08,East,90,0.0,-999.0,98,-99.99,,,0.00,Acu-Link.com,2013-08-31 10:32:00,
2013-08-31 03:47:00,44.6,44.1,30.08,ENE,67,0.0,-999.0,98,-99.99,,,0.00,Acu-Link.com,2013-08-31 10:47:00,
2013-08-31 04:02:00,44.6,44.1,30.08,East,90,0.0,-999.0,98,-99.99,,,0.00,Acu-Link.com,2013-08-31 11:02:00,
2013-08-31 04:17:00,44.6,44.1,30.07,SSE,157,0.0,-999.0,98,-99.99,,,0.00,Acu-Link.com,2013-08-31 11:17:00,
2013-08-31 04:32:00,44.6,44.1,30.08,East,90,0.0,-999.0,98,-99.99,,,0.00,Acu-Link.com,2013-08-31 11:32:00,
2013-08-31 04:47:00,44.6,44.1,30.08,ESE,112,0.0,-999.0,98,-99.99,,,0.00,Acu-Link.com,2013-08-31 11:47:00,
2013-08-31 05:02:00,44.6,44.1,30.08,East,90,0.0,-999.0,98,-99.99,,,0.00,Acu-Link.com,2013-08-31 12:02:00,
2013-08-31 05:17:00,44.6,44.1,30.07,SE,135,0.0,-999.0,98,-99.99,,,0.00,Acu-Link.com,2013-08-31 12:17:00,
2013-08-31 05:32:00,42.8,42.3,30.08,SE,135,0.0,-999.0,98,-99.99,,,0.00,Acu-Link.com,2013-08-31 12:32:00,
2013-08-31 05:48:00,42.8,42.3,30.08,East,90,0.0,-999.0,98,-99.99,,,0.00,Acu-Link.com,2013-08-31 12:48:00,
2013-08-31 06:03:00,42.8,42.3,30.07,East,90,0.0,-999.0,98,-99.99,,,0.00,Acu-Link.com,2013-08-31 13:03:00,
2013-08-31 06:18:00,42.8,42.3,30.07,East,90,0.0,-999.0,98,-99.99,,,0.00,Acu-Link.com,2013-08-31 13:18:00,
2013-08-31 06:33:00,42.8,42.3,30.08,East,90,0.0,-999.0,98,-99.99,,,0.00,Acu-Link.com,2013-08-31 13:33:00,
2013-08-31 06:48:00,42.8,42.3,30.08,East,90,0.0,-999.0,98,-99.99,,,0.00,Acu-Link.com,2013-08-31 13:48:00,
2013-08-31 07:03:00,42.8,42.3,30.08,East,90,0.0,-999.0,98,-99.99,,,0.00,Acu-Link.com,2013-08-31 14:03:00,
2013-08-31 07:18:00,44.6,44.1,30.07,ESE,112,0.0,-999.0,98,-99.99,,,0.00,Acu-Link.com,2013-08-31 14:18:00,
2013-08-31 07:33:00,44.6,44.1,30.08,ESE,112,0.0,-999.0,98,-99.99,,,0.00,Acu-Link.com,2013-08-31 14:33:00,
2013-08-31 07:48:00,44.6,44.1,30.08,SSW,202,0.0,-999.0,98,-99.99,,,0.00,Acu-Link.com,2013-08-31 14:48:00,
2013-08-31 08:04:00,44.6,44.1,30.07,South,180,1.6,-999.0,98,-99.99,,,0.00,Acu-Link.com,2013-08-31 15:04:00,
2013-08-31 08:19:00,46.4,45.9,30.08,SSW,202,0.0,-999.0,98,-99.99,,,0.00,Acu-Link.com,2013-08-31 15:19:00,
2013-08-31 08:34:00,46.4,45.9,30.08,SSW,202,0.0,-999.0,98,-99.99,,,0.00,Acu-Link.com,2013-08-31 15:34:00,
2013-08-31 08:49:00,50.0,49.5,30.07,SSW,202,0.0,-999.0,98,-99.99,,,0.00,Acu-Link.com,2013-08-31 15:49:00,
2013-08-31 09:04:00,50.0,49.5,30.07,SW,225,0.0,-999.0,98,-99.99,,,0.00,Acu-Link.com,2013-08-31 16:04:00,
2013-08-31 09:19:00,51.8,49.3,30.07,West,270,0.0,-999.0,91,-99.99,,,0.00,Acu-Link.com,2013-08-31 16:19:00,
2013-08-31 09:35:00,53.6,50.7,30.07,SSW,202,1.6,-999.0,90,-99.99,,,0.00,Acu-Link.com,2013-08-31 16:35:00,
2013-08-31 09:50:00,55.4,50.3,30.07,ESE,112,0.0,-999.0,83,-99.99,,,0.00,Acu-Link.com,2013-08-31 16:50:00,
2013-08-31 10:05:00,55.4,49.0,30.06,East,90,0.0,-999.0,79,-99.99,,,0.00,Acu-Link.com,2013-08-31 17:05:00,
2013-08-31 10:20:00,59.0,49.2,30.06,NNE,22,2.0,-999.0,70,-99.99,,,0.00,Acu-Link.com,2013-08-31 17:20:00,
2013-08-31 10:35:00,60.8,48.5,30.05,ENE,67,2.7,-999.0,64,-99.99,,,0.00,Acu-Link.com,2013-08-31 17:35:00,
2013-08-31 10:50:00,62.6,49.8,30.05,East,90,2.0,-999.0,63,-99.99,,,0.00,Acu-Link.com,2013-08-31 17:50:00,
2013-08-31 11:05:00,64.4,50.2,30.05,ESE,112,1.6,-999.0,60,-99.99,,,0.00,Acu-Link.com,2013-08-31 18:05:00,
2013-08-31 11:20:00,66.2,50.0,30.03,NNE,22,2.7,-999.0,56,-99.99,,,0.00,Acu-Link.com,2013-08-31 18:20:00,
2013-08-31 11:36:00,68.0,51.2,30.03,NNE,22,4.0,-999.0,55,-99.99,,,0.00,Acu-Link.com,2013-08-31 18:36:00,
2013-08-31 11:51:00,68.0,49.7,30.03,ESE,112,1.6,-999.0,52,-99.99,,,0.00,Acu-Link.com,2013-08-31 18:51:00,
2013-08-31 12:06:00,69.8,49.8,30.02,ENE,67,2.0,-999.0,49,-99.99,,,0.00,Acu-Link.com,2013-08-31 19:06:00,
2013-08-31 12:21:00,69.8,50.3,30.01,West,270,3.1,-999.0,50,-99.99,,,0.00,Acu-Link.com,2013-08-31 19:21:00,
2013-08-31 12:36:00,71.6,50.3,30.01,SSE,157,2.0,-999.0,47,-99.99,,,0.00,Acu-Link.com,2013-08-31 19:36:00,
2013-08-31 12:51:00,73.4,50.8,30.00,NNE,22,4.0,-999.0,45,-99.99,,,0.00,Acu-Link.com,2013-08-31 19:51:00,
2013-08-31 13:06:00,73.4,49.5,30.00,SSE,157,3.1,-999.0,43,-99.99,,,0.00,Acu-Link.com,2013-08-31 20:06:00,
2013-08-31 13:21:00,69.8,48.1,30.00,SE,135,0.0,-999.0,46,-99.99,,,0.00,Acu-Link.com,2013-08-31 20:21:00,
2013-08-31 13:36:00,71.6,50.9,29.99,WNW,292,1.6,-999.0,48,-99.99,,,0.00,Acu-Link.com,2013-08-31 20:36:00,
2013-08-31 13:51:00,71.6,47.9,29.99,SSE,157,2.0,-999.0,43,-99.99,,,0.00,Acu-Link.com,2013-08-31 20:51:00,
2013-08-31 14:06:00,73.4,47.6,29.99,ESE,112,2.7,-999.0,40,-99.99,,,0.00,Acu-Link.com,2013-08-31 21:06:00,
2013-08-31 14:21:00,73.4,47.6,29.98,ESE,112,3.1,-999.0,40,-99.99,,,0.00,Acu-Link.com,2013-08-31 21:21:00,
2013-08-31 14:36:00,71.6,47.9,29.98,ENE,67,2.0,-999.0,43,-99.99,,,0.00,Acu-Link.com,2013-08-31 21:36:00,
2013-08-31 14:51:00,77.0,50.1,29.97,NE,45,4.7,-999.0,39,-99.99,,,0.00,Acu-Link.com,2013-08-31 21:51:00,
2013-08-31 15:07:00,77.0,48.0,29.96,NNE,22,3.6,-999.0,36,-99.99,,,0.00,Acu-Link.com,2013-08-31 22:07:00,
2013-08-31 15:22:00,73.4,46.9,29.96,NE,45,3.6,-999.0,39,-99.99,,,0.00,Acu-Link.com,2013-08-31 22:22:00,
2013-08-31 15:37:00,75.2,47.1,29.95,ESE,112,2.7,-999.0,37,-99.99,,,0.00,Acu-Link.com,2013-08-31 22:37:00,
2013-08-31 15:52:00,73.4,47.6,29.95,North,0,0.0,-999.0,40,-99.99,,,0.00,Acu-Link.com,2013-08-31 22:52:00,
2013-08-31 16:07:00,73.4,48.3,29.94,WNW,292,1.6,-999.0,41,-99.99,,,0.00,Acu-Link.com,2013-08-31 23:07:00,
2013-08-31 16:22:00,73.4,46.9,29.94,West,270,0.0,-999.0,39,-99.99,,,0.00,Acu-Link.com,2013-08-31 23:22:00,
2013-08-31 16:37:00,73.4,46.2,29.94,East,90,2.7,-999.0,38,-99.99,,,0.00,Acu-Link.com,2013-08-31 23:37:00,
2013-08-31 16:52:00,75.2,48.5,29.93,SE,135,2.0,-999.0,39,-99.99,,,0.00,Acu-Link.com,2013-08-31 23:52:00,
2013-08-31 17:08:00,73.4,47.6,29.93,ESE,112,2.0,-999.0,40,-99.99,,,0.00,Acu-Link.com,2013-09-01 00:08:00,
2013-08-31 17:23:00,73.4,48.9,29.92,East,90,1.6,-999.0,42,-99.99,,,0.00,Acu-Link.com,2013-09-01 00:23:00,
2013-08-31 17:38:00,73.4,48.3,29.92,East,90,1.1,-999.0,41,-99.99,,,0.00,Acu-Link.com,2013-09-01 00:38:00,
2013-08-31 17:53:00,77.0,48.7,29.92,SSE,157,1.1,-999.0,37,-99.99,,,0.00,Acu-Link.com,2013-09-01 00:53:00,
2013-08-31 18:08:00,75.2,47.8,29.91,ESE,112,1.6,-999.0,38,-99.99,,,0.00,Acu-Link.com,2013-09-01 01:08:00,
2013-08-31 18:23:00,71.6,46.6,29.91,East,90,1.6,-999.0,41,-99.99,,,0.00,Acu-Link.com,2013-09-01 01:23:00,
2013-08-31 18:39:00,71.6,48.5,29.90,SSW,202,0.0,-999.0,44,-99.99,,,0.00,Acu-Link.com,2013-09-01 01:39:00,
2013-08-31 18:54:00,69.8,47.5,29.90,ENE,67,0.0,-999.0,45,-99.99,,,0.00,Acu-Link.com,2013-09-01 01:54:00,
2013-08-31 19:09:00,68.0,47.6,29.90,NE,45,0.0,-999.0,48,-99.99,,,0.00,Acu-Link.com,2013-09-01 02:09:00,
2013-08-31 19:24:00,68.0,48.7,29.90,NE,45,0.0,-999.0,50,-99.99,,,0.00,Acu-Link.com,2013-09-01 02:24:00,
2013-08-31 19:39:00,64.4,46.4,29.90,ESE,112,0.0,-999.0,52,-99.99,,,0.00,Acu-Link.com,2013-09-01 02:39:00,
2013-08-31 19:54:00,64.4,48.4,29.90,NE,45,0.0,-999.0,56,-99.99,,,0.00,Acu-Link.com,2013-09-01 02:54:00,
2013-08-31 20:09:00,62.6,47.6,29.90,NE,45,0.0,-999.0,58,-99.99,,,0.00,Acu-Link.com,2013-09-01 03:09:00,
2013-08-31 20:25:00,62.6,48.1,29.89,NE,45,0.0,-999.0,59,-99.99,,,0.00,Acu-Link.com,2013-09-01 03:25:00,
2013-08-31 20:40:00,60.8,46.8,29.90,NE,45,0.0,-999.0,60,-99.99,,,0.00,Acu-Link.com,2013-09-01 03:40:00,
2013-08-31 20:55:00,60.8,47.3,29.90,NE,45,0.0,-999.0,61,-99.99,,,0.00,Acu-Link.com,2013-09-01 03:55:00,
2013-08-31 21:10:00,59.0,46.8,29.90,ESE,112,0.0,-999.0,64,-99.99,,,0.00,Acu-Link.com,2013-09-01 04:10:00,
2013-08-31 21:25:00,59.0,47.3,29.90,ENE,67,0.0,-999.0,65,-99.99,,,0.00,Acu-Link.com,2013-09-01 04:25:00,
2013-08-31 21:40:00,59.0,47.3,29.90,East,90,0.0,-999.0,65,-99.99,,,0.00,Acu-Link.com,2013-09-01 04:40:00,
2013-08-31 21:55:00,59.0,47.7,29.89,East,90,0.0,-999.0,66,-99.99,,,0.00,Acu-Link.com,2013-09-01 04:55:00,
2013-08-31 22:10:00,57.2,46.3,29.90,ESE,112,0.0,-999.0,67,-99.99,,,0.00,Acu-Link.com,2013-09-01 05:10:00,
2013-08-31 22:25:00,55.4,44.6,29.89,ESE,112,0.0,-999.0,67,-99.99,,,0.00,Acu-Link.com,2013-09-01 05:25:00,
2013-08-31 22:40:00,55.4,45.8,29.89,North,0,0.0,-999.0,70,-99.99,,,0.00,Acu-Link.com,2013-09-01 05:40:00,
2013-08-31 22:55:00,55.4,46.2,29.89,NW,315,0.0,-999.0,71,-99.99,,,0.00,Acu-Link.com,2013-09-01 05:55:00,
2013-08-31 23:10:00,53.6,45.2,29.89,NW,315,0.0,-999.0,73,-99.99,,,0.00,Acu-Link.com,2013-09-01 06:10:00,
2013-08-31 23:25:00,53.6,45.5,29.89,NW,315,0.0,-999.0,74,-99.99,,,0.00,Acu-Link.com,2013-09-01 06:25:00,
2013-08-31 23:40:00,51.8,44.1,29.89,NW,315,0.0,-999.0,75,-99.99,,,0.00,Acu-Link.com,2013-09-01 06:40:00,
2013-08-31 23:56:00,51.8,44.8,29.89,NNW,337,0.0,-999.0,77,-99.99,,,0.00,Acu-Link.com,2013-09-01 06:56:00,